createdAt,value
2022-12-22T00:03:43.587Z,3.55
2022-12-22T00:09:05.782Z,3.44
2022-12-22T00:14:26.112Z,3.36
2022-12-22T00:19:44.592Z,3.35
2022-12-22T00:25:07.533Z,3.49
2022-12-22T00:30:30.271Z,3.70
2022-12-22T00:35:48.041Z,3.77
2022-12-22T00:41:07.960Z,3.78
2022-12-22T00:46:27.865Z,3.81
2022-12-22T00:51:46.438Z,3.62
2022-12-22T00:57:06.298Z,3.57
2022-12-22T01:02:23.872Z,3.35
2022-12-22T01:07:42.301Z,3.19
2022-12-22T01:13:02.382Z,3.18
2022-12-22T01:18:20.765Z,3.20
2022-12-22T01:23:39.203Z,3.17
2022-12-22T01:28:59.193Z,3.11
2022-12-22T01:34:16.537Z,3.10
2022-12-22T01:39:33.896Z,3.15
2022-12-22T01:44:53.858Z,3.26
2022-12-22T01:50:11.171Z,3.30
2022-12-22T01:55:32.731Z,3.37
2022-12-22T02:00:52.644Z,3.53
2022-12-22T02:06:20.871Z,3.50
2022-12-22T02:11:51.156Z,3.54
2022-12-22T02:17:19.794Z,3.48
2022-12-22T02:22:51.772Z,3.52
2022-12-22T02:28:12.964Z,3.59
2022-12-22T02:33:30.461Z,3.59
2022-12-22T02:39:00.138Z,3.56
2022-12-22T02:44:34.126Z,3.62
2022-12-22T02:49:55.607Z,3.70
2022-12-22T02:55:14.216Z,3.71
2022-12-22T03:00:34.529Z,3.74
2022-12-22T03:05:52.112Z,3.60
2022-12-22T03:11:09.510Z,3.64
2022-12-22T03:16:29.623Z,3.66
2022-12-22T03:21:46.872Z,3.70
2022-12-22T03:26:51.828Z,3.63
2022-12-22T03:31:59.399Z,3.68
2022-12-22T03:37:04.385Z,3.70
2022-12-22T03:42:21.913Z,3.69
2022-12-22T03:47:29.494Z,3.76
2022-12-22T03:52:34.467Z,3.68
2022-12-22T03:57:41.774Z,3.83
2022-12-22T04:02:49.362Z,3.87
2022-12-22T04:07:57.596Z,3.93
2022-12-22T04:13:02.664Z,3.97
2022-12-22T04:18:15.322Z,3.97
2022-12-22T04:23:21.763Z,4.05
2022-12-22T04:28:26.873Z,4.10
2022-12-22T04:33:35.677Z,4.02
2022-12-22T04:38:41.119Z,4.00
2022-12-22T04:43:46.196Z,4.06
2022-12-22T04:48:59.660Z,4.10
2022-12-22T04:54:05.696Z,4.07
2022-12-22T04:59:10.854Z,4.13
2022-12-22T05:04:23.495Z,4.14
2022-12-22T05:09:28.833Z,4.01
2022-12-22T05:14:35.108Z,3.87
2022-12-22T05:19:43.576Z,3.99
2022-12-22T05:24:48.502Z,4.03
2022-12-22T05:29:53.413Z,4.02
2022-12-22T05:35:04.315Z,4.04
2022-12-22T05:40:10.971Z,4.15
2022-12-22T05:45:19.875Z,4.13
2022-12-22T05:50:28.291Z,4.19
2022-12-22T05:55:37.669Z,4.21
2022-12-22T06:00:45.010Z,4.26
2022-12-22T06:05:55.889Z,4.23
2022-12-22T06:11:02.085Z,4.18
2022-12-22T06:16:07.390Z,4.19
2022-12-22T06:21:14.963Z,4.19
2022-12-22T06:26:20.910Z,4.24
2022-12-22T06:31:26.491Z,4.22
2022-12-22T06:36:36.671Z,4.19
2022-12-22T06:41:59.701Z,4.13
2022-12-22T06:47:04.837Z,4.24
2022-12-22T06:52:14.972Z,4.31
2022-12-22T06:57:19.955Z,4.29
2022-12-22T07:02:25.366Z,4.29
2022-12-22T07:07:33.128Z,4.39
2022-12-22T07:12:38.225Z,4.30
2022-12-22T07:17:44.186Z,4.25
2022-12-22T07:22:51.847Z,4.26
2022-12-22T07:27:56.747Z,4.32
2022-12-22T07:33:01.724Z,4.36
2022-12-22T07:38:11.535Z,4.40
2022-12-22T07:43:16.418Z,4.47
2022-12-22T07:48:34.630Z,4.51
2022-12-22T07:53:44.126Z,4.61
2022-12-22T07:58:51.693Z,4.74
2022-12-22T08:03:58.307Z,4.78
2022-12-22T08:09:09.911Z,4.75
2022-12-22T08:14:17.651Z,4.75
2022-12-22T08:19:22.677Z,4.78
2022-12-22T08:24:30.525Z,4.80
2022-12-22T08:29:41.531Z,4.80
2022-12-22T08:34:49.403Z,5.06
2022-12-22T08:40:01.029Z,5.31
2022-12-22T08:45:13.825Z,5.40
2022-12-22T08:50:18.958Z,5.48
2022-12-22T08:55:26.535Z,5.58
2022-12-22T09:00:37.736Z,5.75
2022-12-22T09:05:42.895Z,5.86
2022-12-22T09:10:51.093Z,5.98
2022-12-22T09:15:59.373Z,6.08
2022-12-22T09:21:04.992Z,6.02
2022-12-22T09:26:17.556Z,6.24
2022-12-22T09:31:29.660Z,6.29
2022-12-22T09:36:35.403Z,6.39
2022-12-22T09:41:51.029Z,6.30
2022-12-22T09:46:57.774Z,6.21
2022-12-22T09:52:06.202Z,6.29
2022-12-22T09:57:17.641Z,6.40
2022-12-22T10:02:31.811Z,6.54
2022-12-22T10:07:40.222Z,6.79
2022-12-22T10:12:48.741Z,7.11
2022-12-22T10:17:56.865Z,7.27
2022-12-22T10:23:06.878Z,7.36
2022-12-22T10:28:22.471Z,7.38
2022-12-22T10:33:27.373Z,7.29
2022-12-22T10:38:36.346Z,7.13
2022-12-22T10:43:51.158Z,7.05
2022-12-22T10:49:10.973Z,7.11
2022-12-22T10:54:29.165Z,7.09
2022-12-22T10:59:37.481Z,7.13
2022-12-22T11:04:45.617Z,7.05
2022-12-22T11:09:50.783Z,7.12
2022-12-22T11:15:08.833Z,7.24
2022-12-22T11:20:33.684Z,6.98
2022-12-22T11:25:50.495Z,7.09
2022-12-22T11:31:12.779Z,7.17
2022-12-22T11:36:28.112Z,7.43
2022-12-22T11:41:47.204Z,7.36
2022-12-22T11:47:02.728Z,7.56
2022-12-22T11:52:31.990Z,7.45
2022-12-22T11:57:49.039Z,7.50
2022-12-22T12:03:18.503Z,7.37
2022-12-22T12:08:35.666Z,7.52
2022-12-22T12:13:48.154Z,7.45
2022-12-22T12:19:23.152Z,7.70
2022-12-22T12:24:55.578Z,7.55
2022-12-22T12:35:53.771Z,7.76
2022-12-22T12:41:12.855Z,7.58
2022-12-22T12:46:57.341Z,7.55
2022-12-22T12:52:06.487Z,7.79
2022-12-22T12:57:28.721Z,7.80
2022-12-22T13:02:43.174Z,7.79
2022-12-22T13:08:14.992Z,7.60
2022-12-22T13:13:50.840Z,7.52
2022-12-22T13:19:03.028Z,7.57
2022-12-22T13:24:25.698Z,7.58
2022-12-22T13:29:42.187Z,7.58
2022-12-22T13:35:29.228Z,7.28
2022-12-22T13:40:24.341Z,7.14
2022-12-22T13:45:43.040Z,7.08
2022-12-22T13:50:51.802Z,6.83
2022-12-22T13:56:04.256Z,6.67
2022-12-22T14:01:19.263Z,6.59
2022-12-22T14:06:30.439Z,6.74
2022-12-22T14:11:38.402Z,6.78
2022-12-22T14:16:50.870Z,6.87
2022-12-22T14:22:08.382Z,7.01
2022-12-22T14:27:28.884Z,7.13
2022-12-22T14:32:49.124Z,7.16
2022-12-22T14:38:10.783Z,7.33
2022-12-22T14:43:35.312Z,7.55
2022-12-22T14:48:43.410Z,8.08
2022-12-22T14:53:55.994Z,8.93
2022-12-22T14:59:26.607Z,9.23
2022-12-22T15:04:34.191Z,9.46
2022-12-22T15:15:17.153Z,9.79
2022-12-22T15:20:31.183Z,9.83
2022-12-22T15:25:40.395Z,9.78
2022-12-22T15:30:50.653Z,9.90
2022-12-22T15:35:55.732Z,9.69
2022-12-22T15:41:01.543Z,9.44
2022-12-22T15:46:10.641Z,9.27
2022-12-22T15:51:25.879Z,9.16
2022-12-22T15:56:34.717Z,9.14
2022-12-22T16:01:45.718Z,9.14
2022-12-22T16:06:53.572Z,9.10
2022-12-22T16:12:00.462Z,9.01
2022-12-22T16:17:09.250Z,8.97
2022-12-22T16:22:14.684Z,8.98
2022-12-22T16:27:20.583Z,8.97
2022-12-22T16:32:31.482Z,8.91
2022-12-22T16:37:36.778Z,8.87
2022-12-22T16:48:20.499Z,8.81
2022-12-22T16:53:25.441Z,8.74
2022-12-22T16:58:30.524Z,8.70
2022-12-22T17:03:41.939Z,8.76
2022-12-22T17:08:51.567Z,8.68
2022-12-22T17:14:01.185Z,8.63
2022-12-22T17:19:09.073Z,8.63
2022-12-22T17:24:21.597Z,8.60
2022-12-22T17:29:32.265Z,8.61
2022-12-22T17:34:40.098Z,8.53
2022-12-22T17:39:46.157Z,8.49
2022-12-22T17:44:51.833Z,8.47
2022-12-22T17:50:02.521Z,8.43
2022-12-22T17:55:08.699Z,8.40
2022-12-22T18:00:19.588Z,8.32
2022-12-22T18:05:33.980Z,8.31
2022-12-22T18:10:46.902Z,8.33
2022-12-22T18:15:55.931Z,8.25
2022-12-22T18:21:07.500Z,8.30
2022-12-22T18:26:22.330Z,8.25
2022-12-22T18:31:29.466Z,8.26
2022-12-22T18:36:39.904Z,8.39
2022-12-22T18:41:45.172Z,8.24
2022-12-22T18:46:50.630Z,8.17
2022-12-22T18:51:59.217Z,8.20
2022-12-22T18:57:04.148Z,8.10
2022-12-22T19:02:22.255Z,8.23
2022-12-22T19:07:34.528Z,7.89
2022-12-22T19:12:39.576Z,7.85
2022-12-22T19:17:45.610Z,7.82
2022-12-22T19:22:53.927Z,7.88
2022-12-22T19:28:08.074Z,7.83
2022-12-22T19:33:21.167Z,7.88
2022-12-22T19:38:30.881Z,7.76
2022-12-22T19:43:36.330Z,8.10
2022-12-22T19:48:44.814Z,8.31
2022-12-22T19:53:54.408Z,8.33
2022-12-22T19:59:01.213Z,8.15
2022-12-22T20:04:06.140Z,8.33
2022-12-22T20:09:13.787Z,8.39
2022-12-22T20:14:20.273Z,8.35
2022-12-22T20:19:26.267Z,8.34
2022-12-22T20:24:34.799Z,8.30
2022-12-22T20:29:39.800Z,8.22
2022-12-22T20:34:45.363Z,8.17
2022-12-22T20:39:53.021Z,8.12
2022-12-22T20:45:02.856Z,8.09
2022-12-22T20:50:24.041Z,8.12
2022-12-22T20:55:32.467Z,8.16
2022-12-22T21:00:37.533Z,8.15
2022-12-22T21:05:44.236Z,8.21
2022-12-22T21:10:53.253Z,8.30
2022-12-22T21:15:58.331Z,8.16
2022-12-22T21:21:03.485Z,8.19
2022-12-22T21:26:21.832Z,8.21
2022-12-22T21:31:26.940Z,8.29
2022-12-22T21:36:34.931Z,8.24
2022-12-22T21:41:55.487Z,8.16
2022-12-22T21:47:01.283Z,8.17
2022-12-22T21:52:06.509Z,8.13
2022-12-22T21:57:19.866Z,8.09
2022-12-22T22:02:25.064Z,7.99
2022-12-22T22:07:32.374Z,8.04
2022-12-22T22:12:40.407Z,8.04
2022-12-22T22:17:46.356Z,8.00
2022-12-22T22:22:53.518Z,8.11
2022-12-22T22:28:03.513Z,7.91
2022-12-22T22:33:08.881Z,7.23
2022-12-22T22:38:14.927Z,7.24
2022-12-22T22:43:22.387Z,7.06
2022-12-22T22:48:28.691Z,7.01
2022-12-22T22:53:33.764Z,6.98
2022-12-22T22:58:42.156Z,6.78
2022-12-22T23:03:47.298Z,6.61
2022-12-22T23:08:54.328Z,6.71
2022-12-22T23:14:01.974Z,6.75
2022-12-22T23:19:08.756Z,6.74
2022-12-22T23:24:17.712Z,6.77
2022-12-22T23:29:25.846Z,7.32
2022-12-22T23:34:30.965Z,7.11
2022-12-22T23:39:35.911Z,6.80
2022-12-22T23:44:45.009Z,6.59
2022-12-22T23:49:50.468Z,6.79
2022-12-22T23:54:55.443Z,6.86
